createdAt,value
2023-08-11T00:01:15.047Z,8.23
2023-08-11T00:03:41.541Z,7.90
2023-08-11T00:06:08.077Z,8.27
2023-08-11T00:08:34.492Z,7.63
2023-08-11T00:11:00.845Z,7.47
2023-08-11T00:13:28.259Z,6.82
2023-08-11T00:15:54.890Z,7.90
2023-08-11T00:18:21.302Z,9.23
2023-08-11T00:20:47.781Z,9.55
2023-08-11T00:23:14.221Z,7.13
2023-08-11T00:25:40.741Z,7.45
2023-08-11T00:28:07.277Z,9.68
2023-08-11T00:30:33.783Z,8.30
2023-08-11T00:33:00.373Z,8.98
2023-08-11T00:35:26.843Z,9.10
2023-08-11T00:37:53.241Z,6.53
2023-08-11T00:40:19.975Z,8.60
2023-08-11T00:42:46.527Z,8.82
2023-08-11T00:45:12.973Z,9.18
2023-08-11T00:47:41.601Z,8.83
2023-08-11T00:50:09.097Z,7.72
2023-08-11T00:52:35.659Z,8.65
2023-08-11T00:55:02.566Z,9.63
2023-08-11T00:57:29.038Z,9.77
2023-08-11T00:59:55.548Z,8.90
2023-08-11T01:02:22.189Z,9.23
2023-08-11T01:04:48.752Z,7.00
2023-08-11T01:07:15.106Z,6.80
2023-08-11T01:10:27.869Z,7.80
2023-08-11T01:13:20.078Z,6.40
2023-08-11T01:16:00.256Z,10.70
2023-08-11T01:18:28.344Z,7.75
2023-08-11T01:21:00.334Z,7.95
2023-08-11T01:23:27.346Z,8.43
2023-08-11T01:25:54.441Z,7.93
2023-08-11T01:28:20.969Z,7.80
2023-08-11T01:30:47.415Z,6.38
2023-08-11T01:33:13.932Z,7.55
2023-08-11T01:35:42.164Z,9.63
2023-08-11T01:38:10.432Z,7.20
2023-08-11T01:40:37.791Z,7.35
2023-08-11T01:43:05.729Z,9.25
2023-08-11T01:45:32.407Z,7.75
2023-08-11T01:48:01.841Z,7.65
2023-08-11T01:50:29.213Z,7.20
2023-08-11T01:52:55.944Z,7.05
2023-08-11T01:55:22.488Z,6.55
2023-08-11T01:57:58.585Z,5.53
2023-08-11T02:00:26.252Z,5.82
2023-08-11T02:02:53.607Z,6.50
2023-08-11T02:05:21.215Z,6.72
2023-08-11T02:07:47.689Z,7.28
2023-08-11T02:10:14.711Z,6.93
2023-08-11T02:12:41.778Z,5.75
2023-08-11T02:15:09.403Z,8.50
2023-08-11T02:17:36.290Z,6.72
2023-08-11T02:20:03.001Z,6.40
2023-08-11T02:22:29.388Z,7.18
2023-08-11T02:24:55.762Z,8.60
2023-08-11T02:27:22.146Z,7.70
2023-08-11T02:29:48.562Z,8.45
2023-08-11T02:32:16.090Z,7.97
2023-08-11T02:34:42.591Z,6.70
2023-08-11T02:37:09.355Z,5.78
2023-08-11T02:39:37.774Z,6.83
2023-08-11T02:42:05.831Z,7.40
2023-08-11T02:44:32.554Z,8.20
2023-08-11T02:46:59.005Z,5.75
2023-08-11T02:49:25.446Z,5.93
2023-08-11T02:51:51.890Z,7.30
2023-08-11T02:54:18.432Z,6.78
2023-08-11T02:56:49.068Z,5.60
2023-08-11T02:59:15.716Z,6.32
2023-08-11T03:01:42.254Z,6.78
2023-08-11T03:04:08.906Z,4.87
2023-08-11T03:06:35.439Z,6.80
2023-08-11T03:09:02.328Z,5.80
2023-08-11T03:11:29.054Z,7.93
2023-08-11T03:13:55.622Z,6.28
2023-08-11T03:16:22.128Z,7.63
2023-08-11T03:18:48.516Z,7.65
2023-08-11T03:21:19.829Z,8.38
2023-08-11T03:23:47.341Z,6.00
2023-08-11T03:26:16.012Z,6.13
2023-08-11T03:28:42.593Z,6.17
2023-08-11T03:31:09.322Z,7.00
2023-08-11T03:33:35.866Z,5.63
2023-08-11T03:36:02.833Z,6.15
2023-08-11T03:38:29.363Z,7.10
2023-08-11T03:40:55.860Z,6.50
2023-08-11T03:43:22.316Z,7.22
2023-08-11T03:45:51.278Z,8.50
2023-08-11T03:48:17.806Z,7.60
2023-08-11T03:50:44.393Z,6.63
2023-08-11T03:53:11.034Z,8.07
2023-08-11T03:55:37.503Z,6.78
2023-08-11T03:58:04.118Z,8.05
2023-08-11T04:00:30.621Z,7.00
2023-08-11T04:02:57.279Z,7.85
2023-08-11T04:05:23.879Z,9.43
2023-08-11T04:07:50.388Z,6.80
2023-08-11T04:10:16.868Z,8.00
2023-08-11T04:12:43.305Z,7.45
2023-08-11T04:15:10.220Z,8.05
2023-08-11T04:17:36.748Z,7.17
2023-08-11T04:20:04.401Z,10.18
2023-08-11T04:22:38.691Z,8.68
2023-08-11T04:25:12.020Z,8.57
2023-08-11T04:27:39.466Z,9.02
2023-08-11T04:30:07.233Z,7.57
2023-08-11T04:32:34.011Z,8.52
2023-08-11T04:35:00.607Z,8.98
2023-08-11T04:37:29.559Z,9.63
2023-08-11T04:39:56.022Z,9.63
2023-08-11T04:42:22.638Z,8.90
2023-08-11T04:44:49.122Z,13.25
2023-08-11T04:47:15.755Z,10.02
2023-08-11T04:49:42.816Z,10.02
2023-08-11T04:52:10.441Z,9.07
2023-08-11T04:54:37.259Z,9.17
2023-08-11T04:57:04.118Z,11.13
2023-08-11T04:59:32.562Z,10.20
2023-08-11T05:01:59.398Z,10.20
2023-08-11T05:04:25.999Z,9.73
2023-08-11T05:06:52.534Z,8.70
2023-08-11T05:09:19.058Z,12.00
2023-08-11T05:12:03.291Z,11.88
2023-08-11T05:14:34.688Z,11.93
2023-08-11T05:17:10.407Z,9.20
2023-08-11T05:19:43.331Z,11.10
2023-08-11T05:22:17.642Z,14.90
2023-08-11T05:24:47.063Z,14.27
2023-08-11T05:27:13.633Z,13.00
2023-08-11T05:29:43.292Z,12.90
2023-08-11T05:32:09.968Z,14.90
2023-08-11T05:34:42.344Z,12.60
2023-08-11T05:37:09.497Z,12.98
2023-08-11T05:39:39.014Z,12.50
2023-08-11T05:42:10.088Z,12.05
2023-08-11T05:44:48.479Z,11.13
2023-08-11T05:47:31.217Z,12.65
2023-08-11T05:50:00.505Z,15.23
2023-08-11T05:52:34.406Z,14.25
2023-08-11T05:55:13.231Z,16.88
2023-08-11T05:57:41.354Z,13.53
2023-08-11T06:00:08.511Z,13.00
2023-08-11T06:02:38.188Z,16.08
2023-08-11T06:05:13.441Z,17.58
2023-08-11T06:07:42.684Z,15.52
2023-08-11T06:10:13.550Z,17.23
2023-08-11T06:12:40.210Z,13.65
2023-08-11T06:15:12.586Z,16.63
2023-08-11T06:17:39.827Z,14.57
2023-08-11T06:20:20.681Z,15.05
2023-08-11T06:23:05.777Z,16.03
2023-08-11T06:25:33.388Z,15.85
2023-08-11T06:28:03.691Z,13.68
2023-08-11T06:30:32.851Z,15.73
2023-08-11T06:32:59.710Z,15.05
2023-08-11T06:35:28.893Z,12.70
2023-08-11T06:38:10.109Z,13.00
2023-08-11T06:40:39.142Z,18.80
2023-08-11T06:43:22.260Z,16.83
2023-08-11T06:45:49.095Z,13.65
2023-08-11T06:48:17.972Z,13.77
2023-08-11T06:50:48.004Z,14.80
2023-08-11T06:53:20.766Z,14.35
2023-08-11T06:56:03.269Z,15.85
2023-08-11T06:58:38.278Z,14.20
2023-08-11T07:01:17.326Z,14.33
2023-08-11T07:03:51.170Z,13.43
2023-08-11T07:06:18.098Z,12.77
2023-08-11T07:08:54.992Z,14.57
2023-08-11T07:11:28.300Z,13.20
2023-08-11T07:14:09.252Z,13.37
2023-08-11T07:17:12.222Z,13.45
2023-08-11T07:19:50.806Z,13.93
2023-08-11T07:22:28.982Z,14.93
2023-08-11T07:25:06.997Z,11.68
2023-08-11T07:27:49.819Z,10.67
2023-08-11T07:30:21.918Z,14.60
2023-08-11T07:32:55.797Z,14.88
2023-08-11T07:35:43.981Z,13.27
2023-08-11T07:38:12.564Z,15.73
2023-08-11T07:40:42.590Z,10.03
2023-08-11T07:43:19.664Z,16.33
2023-08-11T07:46:00.193Z,11.05
2023-08-11T07:48:34.399Z,13.50
2023-08-11T07:51:11.968Z,12.88
2023-08-11T07:53:38.905Z,10.77
2023-08-11T07:56:09.977Z,12.93
2023-08-11T07:58:45.497Z,11.57
2023-08-11T08:01:23.551Z,13.20
2023-08-11T08:03:58.198Z,15.63
2023-08-11T08:06:35.577Z,10.10
2023-08-11T08:09:05.507Z,10.88
2023-08-11T08:11:32.566Z,11.50
2023-08-11T08:14:02.127Z,11.30
2023-08-11T08:16:28.937Z,12.82
2023-08-11T08:19:02.319Z,15.53
2023-08-11T08:21:38.981Z,10.82
2023-08-11T08:24:10.635Z,10.50
2023-08-11T08:26:37.881Z,12.05
2023-08-11T08:31:47.954Z,12.20
2023-08-11T08:34:15.098Z,12.35
2023-08-11T08:36:44.108Z,12.07
2023-08-11T08:39:10.691Z,16.20
2023-08-11T08:41:41.775Z,12.45
2023-08-11T08:44:08.815Z,8.90
2023-08-11T08:46:38.548Z,13.60
2023-08-11T08:49:10.203Z,9.90
2023-08-11T08:51:41.452Z,8.82
2023-08-11T08:54:08.478Z,11.98
2023-08-11T08:56:36.451Z,11.23
2023-08-11T08:59:03.519Z,9.52
2023-08-11T09:01:30.626Z,12.75
2023-08-11T09:03:58.791Z,10.60
2023-08-11T09:06:27.295Z,12.25
2023-08-11T09:08:55.063Z,9.47
2023-08-11T09:11:22.016Z,11.93
2023-08-11T09:13:48.947Z,10.73
2023-08-11T09:16:15.930Z,8.38
2023-08-11T09:18:44.542Z,10.88
2023-08-11T09:21:13.994Z,8.23
2023-08-11T09:23:42.789Z,10.40
2023-08-11T09:26:12.093Z,9.98
2023-08-11T09:28:40.741Z,7.18
2023-08-11T09:31:07.747Z,10.60
2023-08-11T09:33:35.284Z,9.87
2023-08-11T09:36:02.227Z,12.18
2023-08-11T09:38:30.515Z,7.25
2023-08-11T09:41:01.539Z,6.68
2023-08-11T09:43:29.165Z,7.50
2023-08-11T09:45:59.239Z,7.20
2023-08-11T09:48:27.483Z,5.10
2023-08-11T09:50:55.125Z,11.32
2023-08-11T09:53:30.909Z,8.40
2023-08-11T09:55:59.047Z,7.53
2023-08-11T09:58:28.277Z,12.13
2023-08-11T10:01:03.936Z,6.68
2023-08-11T10:03:46.162Z,7.30
2023-08-11T10:06:24.391Z,9.57
2023-08-11T10:08:52.155Z,7.95
2023-08-11T10:11:22.588Z,8.73
2023-08-11T10:13:50.343Z,7.28
2023-08-11T10:16:18.392Z,7.63
2023-08-11T10:18:45.063Z,7.85
2023-08-11T10:21:12.104Z,7.30
2023-08-11T10:23:38.872Z,5.90
2023-08-11T10:26:07.394Z,9.18
2023-08-11T10:28:35.298Z,5.70
2023-08-11T10:31:05.478Z,6.25
2023-08-11T10:33:33.032Z,8.40
2023-08-11T10:36:05.545Z,9.27
2023-08-11T10:38:34.168Z,7.28
2023-08-11T10:41:06.183Z,8.35
2023-08-11T10:43:40.002Z,6.45
2023-08-11T10:46:26.186Z,9.30
2023-08-11T10:49:14.067Z,6.43
2023-08-11T10:51:43.328Z,10.43
2023-08-11T10:54:09.962Z,6.50
2023-08-11T10:56:42.386Z,6.88
2023-08-11T10:59:14.508Z,8.88
2023-08-11T11:01:43.803Z,5.27
2023-08-11T11:04:10.777Z,7.80
2023-08-11T11:06:37.457Z,11.95
2023-08-11T11:09:04.990Z,6.75
2023-08-11T11:11:32.072Z,4.93
2023-08-11T11:13:58.706Z,4.77
2023-08-11T11:16:25.925Z,8.95
2023-08-11T11:18:52.638Z,5.55
2023-08-11T11:21:19.919Z,5.32
2023-08-11T11:23:47.969Z,5.07
2023-08-11T11:26:43.550Z,6.00
2023-08-11T11:29:10.293Z,7.45
2023-08-11T11:31:39.631Z,8.02
2023-08-11T11:34:06.533Z,6.32
2023-08-11T11:36:35.587Z,7.40
2023-08-11T11:39:05.155Z,6.77
2023-08-11T11:41:33.501Z,6.85
2023-08-11T11:44:01.099Z,6.15
2023-08-11T11:46:32.335Z,7.05
2023-08-11T11:48:59.402Z,6.32
2023-08-11T11:51:27.136Z,8.20
2023-08-11T11:53:56.561Z,7.88
2023-08-11T11:56:23.319Z,6.60
2023-08-11T11:58:50.713Z,10.68
2023-08-11T12:01:23.377Z,7.60
2023-08-11T12:03:51.598Z,8.53
2023-08-11T12:06:19.836Z,11.60
2023-08-11T12:08:49.285Z,12.50
2023-08-11T12:11:23.885Z,9.60
2023-08-11T12:13:51.148Z,7.53
2023-08-11T12:16:18.579Z,11.23
2023-08-11T12:18:45.317Z,10.32
2023-08-11T12:21:12.268Z,11.52
2023-08-11T12:23:38.822Z,9.65
2023-08-11T12:26:07.321Z,14.98
2023-08-11T12:28:33.775Z,9.97
2023-08-11T12:31:01.000Z,9.13
2023-08-11T12:33:28.556Z,9.65
2023-08-11T12:35:55.316Z,8.55
2023-08-11T12:38:22.001Z,11.25
2023-08-11T12:40:49.672Z,7.87
2023-08-11T12:43:16.677Z,5.10
2023-08-11T12:45:44.425Z,6.88
2023-08-11T12:48:11.176Z,7.03
2023-08-11T12:50:37.740Z,7.22
2023-08-11T12:53:05.375Z,4.40
2023-08-11T12:55:34.027Z,5.40
2023-08-11T12:58:03.374Z,3.95
2023-08-11T13:00:30.544Z,7.18
2023-08-11T13:02:57.392Z,4.47
2023-08-11T13:05:24.277Z,5.50
2023-08-11T13:07:50.814Z,6.28
2023-08-11T13:10:17.553Z,10.85
2023-08-11T13:12:44.405Z,5.30
2023-08-11T13:15:11.233Z,4.75
2023-08-11T13:17:37.788Z,4.17
2023-08-11T13:20:05.870Z,5.88
2023-08-11T13:22:32.577Z,8.65
2023-08-11T13:24:59.809Z,7.80
2023-08-11T13:27:26.351Z,8.80
2023-08-11T13:29:54.837Z,6.60
2023-08-11T13:32:21.403Z,7.95
2023-08-11T13:34:48.053Z,10.63
2023-08-11T13:37:14.662Z,11.98
2023-08-11T13:39:41.244Z,11.45
2023-08-11T13:42:11.496Z,10.03
2023-08-11T13:44:45.915Z,9.68
2023-08-11T13:47:12.738Z,13.90
2023-08-11T13:49:40.543Z,11.50
2023-08-11T13:52:11.932Z,12.18
2023-08-11T13:54:38.657Z,10.03
2023-08-11T13:57:05.774Z,6.35
2023-08-11T13:59:32.345Z,8.32
2023-08-11T14:02:01.147Z,9.90
2023-08-11T14:04:27.771Z,7.60
2023-08-11T14:07:00.983Z,6.83
2023-08-11T14:09:37.703Z,10.93
2023-08-11T14:14:48.914Z,9.80
2023-08-11T14:17:24.226Z,9.85
2023-08-11T14:19:50.768Z,10.07
2023-08-11T14:22:22.754Z,5.82
2023-08-11T14:24:54.684Z,8.32
2023-08-11T14:27:25.363Z,9.13
2023-08-11T14:29:51.837Z,7.78
2023-08-11T14:32:24.774Z,8.87
2023-08-11T14:35:01.389Z,11.57
2023-08-11T14:37:28.297Z,8.98
2023-08-11T14:39:55.983Z,10.23
2023-08-11T14:42:34.365Z,11.88
2023-08-11T14:45:05.247Z,8.23
2023-08-11T14:47:47.867Z,6.68
2023-08-11T14:50:18.396Z,15.98
2023-08-11T14:52:48.954Z,10.68
2023-08-11T14:55:20.196Z,11.35
2023-08-11T14:57:47.879Z,9.73
2023-08-11T15:00:15.014Z,7.70
2023-08-11T15:02:42.381Z,7.07
2023-08-11T15:05:11.111Z,9.23
2023-08-11T15:07:37.899Z,10.50
2023-08-11T15:10:14.987Z,12.37
2023-08-11T15:12:42.248Z,6.50
2023-08-11T15:15:09.489Z,8.55
2023-08-11T15:17:42.719Z,8.45
2023-08-11T15:20:11.883Z,7.93
2023-08-11T15:22:38.849Z,11.50
2023-08-11T15:25:09.197Z,8.98
2023-08-11T15:27:36.778Z,8.75
2023-08-11T15:30:10.291Z,11.55
2023-08-11T15:32:43.006Z,6.07
2023-08-11T15:35:15.735Z,7.87
2023-08-11T15:37:45.747Z,7.80
2023-08-11T15:40:12.764Z,7.25
2023-08-11T15:42:39.546Z,9.07
2023-08-11T15:45:15.832Z,6.95
2023-08-11T15:47:49.227Z,7.50
2023-08-11T15:50:29.480Z,6.45
2023-08-11T15:52:58.342Z,5.38
2023-08-11T15:55:54.129Z,4.47
2023-08-11T15:58:21.194Z,6.95
2023-08-11T16:00:53.009Z,5.03
2023-08-11T16:03:20.090Z,3.15
2023-08-11T16:05:49.263Z,6.07
2023-08-11T16:08:22.927Z,9.60
2023-08-11T16:10:52.614Z,10.13
2023-08-11T16:13:19.668Z,5.57
2023-08-11T16:15:47.792Z,9.88
2023-08-11T16:18:14.957Z,8.25
2023-08-11T16:20:46.637Z,7.55
2023-08-11T16:23:22.843Z,10.15
2023-08-11T16:25:56.279Z,11.80
2023-08-11T16:28:49.463Z,8.52
2023-08-11T16:31:16.517Z,7.90
2023-08-11T16:33:45.957Z,8.13
2023-08-11T16:36:12.865Z,10.10
2023-08-11T16:38:39.667Z,9.97
2023-08-11T16:41:09.322Z,14.82
2023-08-11T16:43:42.170Z,7.97
2023-08-11T16:46:11.807Z,13.75
2023-08-11T16:48:40.972Z,11.18
2023-08-11T16:51:07.730Z,8.50
2023-08-11T16:53:35.511Z,9.60
2023-08-11T16:56:03.654Z,11.93
2023-08-11T16:58:35.640Z,9.05
2023-08-11T17:01:02.546Z,8.07
2023-08-11T17:03:29.574Z,13.27
2023-08-11T17:05:59.844Z,8.27
2023-08-11T17:08:26.680Z,10.88
2023-08-11T17:10:53.545Z,9.00
2023-08-11T17:13:20.173Z,8.60
2023-08-11T17:15:51.352Z,6.87
2023-08-11T17:18:20.278Z,8.57
2023-08-11T17:20:56.926Z,6.85
2023-08-11T17:23:28.339Z,8.20
2023-08-11T17:25:56.018Z,5.25
2023-08-11T17:28:24.825Z,5.80
2023-08-11T17:30:53.668Z,7.78
2023-08-11T17:33:24.649Z,10.30
2023-08-11T17:36:18.656Z,5.82
2023-08-11T17:38:48.352Z,5.25
2023-08-11T17:41:17.680Z,6.83
2023-08-11T17:43:48.926Z,5.75
2023-08-11T17:46:15.881Z,5.20
2023-08-11T17:48:47.584Z,6.57
2023-08-11T17:51:15.405Z,5.68
2023-08-11T17:53:42.625Z,4.60
2023-08-11T17:56:12.296Z,8.40
2023-08-11T17:58:39.123Z,6.53
2023-08-11T18:01:08.793Z,5.07
2023-08-11T18:03:35.379Z,6.15
2023-08-11T18:06:04.541Z,4.30
2023-08-11T18:08:31.089Z,4.43
2023-08-11T18:10:57.930Z,3.88
2023-08-11T18:13:24.470Z,3.03
2023-08-11T18:15:51.116Z,6.05
2023-08-11T18:18:17.616Z,3.07
2023-08-11T18:20:44.172Z,3.65
2023-08-11T18:23:10.585Z,4.65
2023-08-11T18:25:37.127Z,6.30
2023-08-11T18:28:03.893Z,5.53
2023-08-11T18:30:30.581Z,6.67
2023-08-11T18:32:57.188Z,4.93
2023-08-11T18:35:26.142Z,3.65
2023-08-11T18:37:52.636Z,6.18
2023-08-11T18:40:19.470Z,7.55
2023-08-11T18:42:49.192Z,6.90
2023-08-11T18:45:16.758Z,6.40
2023-08-11T18:47:45.772Z,4.63
2023-08-11T18:50:12.264Z,7.60
2023-08-11T18:52:40.752Z,5.78
2023-08-11T18:55:07.426Z,5.27
2023-08-11T18:57:33.997Z,7.30
2023-08-11T19:00:00.505Z,4.78
2023-08-11T19:02:26.964Z,6.10
2023-08-11T19:04:53.568Z,5.53
2023-08-11T19:07:20.057Z,5.53
2023-08-11T19:09:46.563Z,7.47
2023-08-11T19:12:16.160Z,6.75
2023-08-11T19:14:42.628Z,5.82
2023-08-11T19:17:09.205Z,3.58
2023-08-11T19:19:35.980Z,5.50
2023-08-11T19:22:03.625Z,6.45
2023-08-11T19:24:29.993Z,3.70
2023-08-11T19:26:56.456Z,6.03
2023-08-11T19:29:23.166Z,5.40
2023-08-11T19:31:49.706Z,8.30
2023-08-11T19:34:17.152Z,5.30
2023-08-11T19:36:43.614Z,4.22
2023-08-11T19:39:11.046Z,9.57
2023-08-11T19:41:37.468Z,4.72
2023-08-11T19:44:04.061Z,6.07
2023-08-11T19:46:31.554Z,6.22
2023-08-11T19:48:58.157Z,6.35
2023-08-11T19:51:24.684Z,4.90
2023-08-11T19:53:51.235Z,4.65
2023-08-11T19:56:17.645Z,7.23
2023-08-11T19:58:44.125Z,5.32
2023-08-11T20:01:10.661Z,5.15
2023-08-11T20:03:38.163Z,6.10
2023-08-11T20:06:04.708Z,3.78
2023-08-11T20:08:31.131Z,4.53
2023-08-11T20:10:57.574Z,4.13
2023-08-11T20:13:24.125Z,3.45
2023-08-11T20:15:56.484Z,3.70
2023-08-11T20:18:23.020Z,5.68
2023-08-11T20:20:49.402Z,6.00
2023-08-11T20:23:15.817Z,4.25
2023-08-11T20:25:42.354Z,5.32
2023-08-11T20:28:08.792Z,7.32
2023-08-11T20:30:35.861Z,6.30
2023-08-11T20:33:02.957Z,4.13
2023-08-11T20:35:29.421Z,3.97
2023-08-11T20:37:55.918Z,4.60
2023-08-11T20:40:23.471Z,3.30
2023-08-11T20:42:50.882Z,4.53
2023-08-11T20:45:17.429Z,3.73
2023-08-11T20:47:43.887Z,6.47
2023-08-11T20:50:10.688Z,5.90
2023-08-11T20:52:37.054Z,3.88
2023-08-11T20:55:03.723Z,6.35
2023-08-11T20:57:30.182Z,5.03
2023-08-11T20:59:57.652Z,3.70
2023-08-11T21:02:25.148Z,6.00
2023-08-11T21:04:52.595Z,6.57
2023-08-11T21:07:19.076Z,5.35
2023-08-11T21:09:45.775Z,3.47
2023-08-11T21:12:14.636Z,5.22
2023-08-11T21:14:41.534Z,5.93
2023-08-11T21:17:09.800Z,5.10
2023-08-11T21:19:38.245Z,5.03
2023-08-11T21:22:05.150Z,4.53
2023-08-11T21:24:31.900Z,5.63
2023-08-11T21:26:58.608Z,6.90
2023-08-11T21:29:25.435Z,6.43
2023-08-11T21:31:52.425Z,5.20
2023-08-11T21:34:19.294Z,5.80
2023-08-11T21:36:46.192Z,4.70
2023-08-11T21:39:13.061Z,4.82
2023-08-11T21:41:39.762Z,6.82
2023-08-11T21:44:06.703Z,3.58
2023-08-11T21:46:34.283Z,5.50
2023-08-11T21:49:01.044Z,4.38
2023-08-11T21:51:27.855Z,5.38
2023-08-11T21:53:56.396Z,5.75
2023-08-11T21:56:22.934Z,7.43
2023-08-11T21:58:49.416Z,6.37
2023-08-11T22:01:17.105Z,7.05
2023-08-11T22:03:43.670Z,7.65
2023-08-11T22:06:13.063Z,9.95
2023-08-11T22:08:40.023Z,5.55
2023-08-11T22:11:06.801Z,5.40
2023-08-11T22:13:33.638Z,7.07
2023-08-11T22:16:00.304Z,5.00
2023-08-11T22:18:27.017Z,6.47
2023-08-11T22:20:54.418Z,8.45
2023-08-11T22:23:20.986Z,8.67
2023-08-11T22:25:47.503Z,8.60
2023-08-11T22:28:13.982Z,9.65
2023-08-11T22:30:40.566Z,7.00
2023-08-11T22:33:08.290Z,6.22
2023-08-11T22:35:34.829Z,7.40
2023-08-11T22:38:01.374Z,7.20
2023-08-11T22:40:27.979Z,6.70
2023-08-11T22:42:54.546Z,7.07
2023-08-11T22:45:22.417Z,7.63
2023-08-11T22:47:49.138Z,7.77
2023-08-11T22:50:15.761Z,8.30
2023-08-11T22:52:42.340Z,6.85
2023-08-11T22:55:08.916Z,5.95
2023-08-11T22:57:35.369Z,4.32
2023-08-11T23:00:01.921Z,7.60
2023-08-11T23:02:28.592Z,8.18
2023-08-11T23:04:55.162Z,6.07
2023-08-11T23:07:22.551Z,7.45
2023-08-11T23:09:50.131Z,9.23
2023-08-11T23:12:16.713Z,7.20
2023-08-11T23:14:43.578Z,6.72
2023-08-11T23:17:10.324Z,8.70
2023-08-11T23:19:37.160Z,8.90
2023-08-11T23:22:03.720Z,6.25
2023-08-11T23:24:30.451Z,5.97
2023-08-11T23:26:56.937Z,6.70
2023-08-11T23:29:23.537Z,9.48
2023-08-11T23:31:50.090Z,8.55
2023-08-11T23:34:16.663Z,7.30
2023-08-11T23:36:43.276Z,9.90
2023-08-11T23:39:09.762Z,6.30
2023-08-11T23:41:36.264Z,7.15
2023-08-11T23:44:02.832Z,9.48
2023-08-11T23:46:29.733Z,7.05
2023-08-11T23:52:18.950Z,6.88
2023-08-11T23:54:51.928Z,7.65
2023-08-11T23:57:18.569Z,5.57
2023-08-11T23:59:45.221Z,4.88
